createdAt,value
2023-03-06T00:00:33.415Z,22.1
2023-03-06T00:15:32.998Z,22.1
2023-03-06T00:30:31.898Z,22.1
2023-03-06T00:45:31.888Z,22.1
2023-03-06T01:00:32.315Z,22.0
2023-03-06T01:15:32.146Z,22.0
2023-03-06T01:30:32.708Z,22.0
2023-03-06T01:45:31.883Z,22
2023-03-06T02:00:33.170Z,22
2023-03-06T02:15:32.552Z,22
2023-03-06T02:30:31.923Z,22.0
2023-03-06T02:45:31.886Z,22.0
2023-03-06T03:00:32.750Z,22.0
2023-03-06T03:15:31.764Z,22
2023-03-06T03:30:32.029Z,22
2023-03-06T03:45:32.431Z,22
2023-03-06T04:00:32.150Z,22
2023-03-06T04:15:32.316Z,22
2023-03-06T04:30:32.543Z,21.9
2023-03-06T04:45:31.840Z,21.9
2023-03-06T05:00:32.931Z,21.9
2023-03-06T05:15:32.375Z,21.9
2023-03-06T05:30:32.441Z,21.8
2023-03-06T05:45:32.200Z,21.8
2023-03-06T06:00:35.551Z,21.8
2023-03-06T06:15:33.184Z,21.8
2023-03-06T06:30:35.147Z,21.8
2023-03-06T06:45:32.692Z,21.8
2023-03-06T07:00:36.481Z,21.9
2023-03-06T07:15:32.593Z,21.9
2023-03-06T07:30:34.350Z,22
2023-03-06T07:45:32.871Z,22.1
2023-03-06T08:00:36.532Z,22.2
2023-03-06T08:15:32.004Z,22.3
2023-03-06T08:30:32.599Z,22.3
2023-03-06T08:45:32.845Z,22.4
2023-03-06T09:00:34.189Z,22.5
2023-03-06T09:15:32.685Z,22.5
2023-03-06T09:30:35.079Z,22.6
2023-03-06T09:45:32.486Z,22.8
2023-03-06T10:00:34.924Z,22.9
2023-03-06T10:15:32.622Z,22.9
2023-03-06T10:30:32.781Z,23
2023-03-06T10:45:43.873Z,23
2023-03-06T11:00:36.382Z,23.1
2023-03-06T11:15:32.356Z,23.1
2023-03-06T11:30:33.512Z,23.1
2023-03-06T11:45:32.437Z,23.1
2023-03-06T12:00:37.426Z,23.2
2023-03-06T12:15:32.244Z,23.2
2023-03-06T12:30:33.848Z,23.3
2023-03-06T12:45:32.759Z,23.3
2023-03-06T13:00:35.868Z,23.3
2023-03-06T13:15:32.700Z,23.3
2023-03-06T13:30:32.687Z,23.3
2023-03-06T13:45:32.017Z,23.4
2023-03-06T14:00:35.970Z,23.4
2023-03-06T14:15:32.797Z,23.4
2023-03-06T14:30:33.317Z,23.4
2023-03-06T14:45:33.051Z,23.4
2023-03-06T15:00:36.797Z,23.5
2023-03-06T15:15:32.161Z,23.5
2023-03-06T15:30:35.267Z,23.5
2023-03-06T15:45:32.531Z,23.5
2023-03-06T16:00:35.722Z,23.5
2023-03-06T16:15:32.844Z,23.5
2023-03-06T16:30:35.160Z,23.4
2023-03-06T16:45:32.679Z,23.3
2023-03-06T17:00:40.340Z,23.3
2023-03-06T17:15:33.096Z,23.2
2023-03-06T17:30:36.265Z,23.2
2023-03-06T17:45:32.744Z,23.1
2023-03-06T18:00:37.465Z,23.1
2023-03-06T18:15:32.300Z,23.1
2023-03-06T18:30:34.088Z,23.0
2023-03-06T18:45:32.491Z,23
2023-03-06T19:00:35.078Z,22.9
2023-03-06T19:15:32.929Z,22.9
2023-03-06T19:30:32.642Z,22.8
2023-03-06T19:45:32.863Z,22.8
2023-03-06T20:00:34.060Z,22.8
2023-03-06T20:15:32.236Z,22.7
2023-03-06T20:30:38.268Z,22.7
2023-03-06T20:45:32.941Z,22.7
2023-03-06T21:00:33.141Z,22.7
2023-03-06T21:15:37.620Z,22.6
2023-03-06T21:30:32.206Z,22.6
2023-03-06T21:45:32.251Z,22.6
2023-03-06T22:00:32.592Z,22.6
2023-03-06T22:15:32.137Z,22.5
2023-03-06T22:30:31.931Z,22.5
2023-03-06T22:45:34.541Z,22.5
2023-03-06T23:00:32.390Z,22.5
2023-03-06T23:15:32.277Z,22.5
2023-03-06T23:30:32.602Z,22.5
2023-03-06T23:45:32.324Z,22.4
